sensor_id;sensor_type;location;lat;lon;timestamp;P1;durP1;ratioP1;P2;durP2;ratioP2
17239;SDS011;9943;54.378;18.604;2022-07-06T00:01:18;4.65;;;1.80;;
17239;SDS011;9943;54.378;18.604;2022-07-06T00:03:47;4.40;;;1.88;;
17239;SDS011;9943;54.378;18.604;2022-07-06T00:06:15;2.80;;;1.48;;
17239;SDS011;9943;54.378;18.604;2022-07-06T00:08:43;5.00;;;1.80;;
17239;SDS011;9943;54.378;18.604;2022-07-06T00:11:11;5.00;;;1.90;;
17239;SDS011;9943;54.378;18.604;2022-07-06T00:13:38;4.35;;;2.00;;
17239;SDS011;9943;54.378;18.604;2022-07-06T00:16:06;3.38;;;1.60;;
17239;SDS011;9943;54.378;18.604;2022-07-06T00:18:35;5.05;;;1.65;;
17239;SDS011;9943;54.378;18.604;2022-07-06T00:21:04;3.17;;;1.98;;
17239;SDS011;9943;54.378;18.604;2022-07-06T00:23:32;2.78;;;1.88;;
17239;SDS011;9943;54.378;18.604;2022-07-06T00:26:00;3.42;;;1.58;;
17239;SDS011;9943;54.378;18.604;2022-07-06T00:28:27;2.63;;;1.95;;
17239;SDS011;9943;54.378;18.604;2022-07-06T00:30:55;3.72;;;1.80;;
17239;SDS011;9943;54.378;18.604;2022-07-06T00:33:22;3.50;;;2.10;;
17239;SDS011;9943;54.378;18.604;2022-07-06T00:35:50;2.65;;;1.70;;
17239;SDS011;9943;54.378;18.604;2022-07-06T00:38:18;6.22;;;2.00;;
17239;SDS011;9943;54.378;18.604;2022-07-06T00:40:46;2.13;;;1.60;;
17239;SDS011;9943;54.378;18.604;2022-07-06T00:43:14;2.17;;;1.65;;
17239;SDS011;9943;54.378;18.604;2022-07-06T00:45:41;5.40;;;1.67;;
17239;SDS011;9943;54.378;18.604;2022-07-06T00:48:09;4.40;;;1.60;;
17239;SDS011;9943;54.378;18.604;2022-07-06T00:50:37;2.80;;;1.70;;
17239;SDS011;9943;54.378;18.604;2022-07-06T00:53:06;4.38;;;1.85;;
17239;SDS011;9943;54.378;18.604;2022-07-06T00:55:35;3.50;;;1.90;;
17239;SDS011;9943;54.378;18.604;2022-07-06T00:58:05;3.25;;;1.90;;
17239;SDS011;9943;54.378;18.604;2022-07-06T01:00:34;5.43;;;2.08;;
17239;SDS011;9943;54.378;18.604;2022-07-06T01:03:02;3.17;;;1.85;;
17239;SDS011;9943;54.378;18.604;2022-07-06T01:05:30;2.17;;;1.83;;
17239;SDS011;9943;54.378;18.604;2022-07-06T01:07:57;2.85;;;1.70;;
17239;SDS011;9943;54.378;18.604;2022-07-06T01:10:26;2.35;;;1.75;;
17239;SDS011;9943;54.378;18.604;2022-07-06T01:12:56;3.33;;;1.90;;
17239;SDS011;9943;54.378;18.604;2022-07-06T01:15:25;2.58;;;1.88;;
17239;SDS011;9943;54.378;18.604;2022-07-06T01:17:52;4.60;;;1.70;;
17239;SDS011;9943;54.378;18.604;2022-07-06T01:20:22;3.47;;;1.90;;
17239;SDS011;9943;54.378;18.604;2022-07-06T01:22:51;3.45;;;1.75;;
17239;SDS011;9943;54.378;18.604;2022-07-06T01:25:20;3.08;;;1.92;;
17239;SDS011;9943;54.378;18.604;2022-07-06T01:27:47;3.10;;;1.70;;
17239;SDS011;9943;54.378;18.604;2022-07-06T01:30:16;4.65;;;2.08;;
17239;SDS011;9943;54.378;18.604;2022-07-06T01:32:44;6.22;;;2.28;;
17239;SDS011;9943;54.378;18.604;2022-07-06T01:35:12;2.90;;;1.70;;
17239;SDS011;9943;54.378;18.604;2022-07-06T01:37:43;7.88;;;2.03;;
17239;SDS011;9943;54.378;18.604;2022-07-06T01:40:11;3.85;;;1.80;;
17239;SDS011;9943;54.378;18.604;2022-07-06T01:42:39;4.45;;;2.45;;
17239;SDS011;9943;54.378;18.604;2022-07-06T01:45:08;3.63;;;1.90;;
17239;SDS011;9943;54.378;18.604;2022-07-06T01:47:36;2.90;;;2.00;;
17239;SDS011;9943;54.378;18.604;2022-07-06T01:50:04;4.18;;;2.15;;
17239;SDS011;9943;54.378;18.604;2022-07-06T01:52:34;2.95;;;1.85;;
17239;SDS011;9943;54.378;18.604;2022-07-06T01:55:03;2.63;;;1.90;;
17239;SDS011;9943;54.378;18.604;2022-07-06T01:57:31;4.10;;;1.95;;
17239;SDS011;9943;54.378;18.604;2022-07-06T01:59:59;2.65;;;2.00;;
17239;SDS011;9943;54.378;18.604;2022-07-06T02:02:27;2.47;;;2.13;;
17239;SDS011;9943;54.378;18.604;2022-07-06T02:04:54;6.05;;;2.33;;
17239;SDS011;9943;54.378;18.604;2022-07-06T02:07:21;3.95;;;1.88;;
17239;SDS011;9943;54.378;18.604;2022-07-06T02:09:49;3.28;;;2.05;;
17239;SDS011;9943;54.378;18.604;2022-07-06T02:12:18;3.88;;;2.10;;
17239;SDS011;9943;54.378;18.604;2022-07-06T02:14:45;2.42;;;1.55;;
17239;SDS011;9943;54.378;18.604;2022-07-06T02:17:13;3.38;;;2.10;;
17239;SDS011;9943;54.378;18.604;2022-07-06T02:19:40;4.28;;;2.00;;
17239;SDS011;9943;54.378;18.604;2022-07-06T02:22:07;4.63;;;2.30;;
17239;SDS011;9943;54.378;18.604;2022-07-06T02:24:35;2.67;;;1.90;;
17239;SDS011;9943;54.378;18.604;2022-07-06T02:27:02;4.97;;;2.10;;
17239;SDS011;9943;54.378;18.604;2022-07-06T02:29:31;4.57;;;2.40;;
17239;SDS011;9943;54.378;18.604;2022-07-06T02:31:59;4.22;;;2.20;;
17239;SDS011;9943;54.378;18.604;2022-07-06T02:34:27;2.33;;;2.03;;
17239;SDS011;9943;54.378;18.604;2022-07-06T02:36:54;4.30;;;2.15;;
17239;SDS011;9943;54.378;18.604;2022-07-06T02:39:21;4.43;;;2.13;;
17239;SDS011;9943;54.378;18.604;2022-07-06T02:41:49;3.60;;;2.13;;
17239;SDS011;9943;54.378;18.604;2022-07-06T02:44:16;5.25;;;2.42;;
17239;SDS011;9943;54.378;18.604;2022-07-06T02:46:45;3.30;;;2.20;;
17239;SDS011;9943;54.378;18.604;2022-07-06T02:49:12;4.03;;;1.90;;
17239;SDS011;9943;54.378;18.604;2022-07-06T02:51:40;4.57;;;2.42;;
17239;SDS011;9943;54.378;18.604;2022-07-06T02:54:07;2.40;;;2.00;;
17239;SDS011;9943;54.378;18.604;2022-07-06T02:56:34;6.78;;;2.38;;
17239;SDS011;9943;54.378;18.604;2022-07-06T02:59:02;4.95;;;2.38;;
17239;SDS011;9943;54.378;18.604;2022-07-06T03:01:29;3.78;;;2.35;;
17239;SDS011;9943;54.378;18.604;2022-07-06T03:03:58;2.65;;;2.17;;
17239;SDS011;9943;54.378;18.604;2022-07-06T03:06:26;3.10;;;2.10;;
17239;SDS011;9943;54.378;18.604;2022-07-06T03:08:53;3.58;;;2.20;;
17239;SDS011;9943;54.378;18.604;2022-07-06T03:11:21;4.22;;;2.50;;
17239;SDS011;9943;54.378;18.604;2022-07-06T03:13:48;4.35;;;2.22;;
17239;SDS011;9943;54.378;18.604;2022-07-06T03:16:16;4.85;;;2.20;;
17239;SDS011;9943;54.378;18.604;2022-07-06T03:18:43;3.15;;;2.20;;
17239;SDS011;9943;54.378;18.604;2022-07-06T03:21:12;5.80;;;2.17;;
17239;SDS011;9943;54.378;18.604;2022-07-06T03:23:39;3.63;;;2.08;;
17239;SDS011;9943;54.378;18.604;2022-07-06T03:26:06;3.28;;;2.10;;
17239;SDS011;9943;54.378;18.604;2022-07-06T03:28:34;5.57;;;2.20;;
17239;SDS011;9943;54.378;18.604;2022-07-06T03:31:01;3.53;;;2.00;;
17239;SDS011;9943;54.378;18.604;2022-07-06T03:33:29;5.53;;;2.72;;
17239;SDS011;9943;54.378;18.604;2022-07-06T03:35:56;4.03;;;3.33;;
17239;SDS011;9943;54.378;18.604;2022-07-06T03:38:25;4.85;;;2.13;;
17239;SDS011;9943;54.378;18.604;2022-07-06T03:40:52;4.65;;;2.15;;
17239;SDS011;9943;54.378;18.604;2022-07-06T03:43:20;2.75;;;1.95;;
17239;SDS011;9943;54.378;18.604;2022-07-06T03:45:47;2.85;;;2.13;;
17239;SDS011;9943;54.378;18.604;2022-07-06T03:48:14;3.75;;;1.90;;
17239;SDS011;9943;54.378;18.604;2022-07-06T03:50:42;3.88;;;2.20;;
17239;SDS011;9943;54.378;18.604;2022-07-06T03:53:09;4.30;;;2.00;;
17239;SDS011;9943;54.378;18.604;2022-07-06T03:55:38;4.45;;;2.75;;
17239;SDS011;9943;54.378;18.604;2022-07-06T03:58:05;3.85;;;2.03;;
17239;SDS011;9943;54.378;18.604;2022-07-06T04:00:33;3.50;;;1.80;;
17239;SDS011;9943;54.378;18.604;2022-07-06T04:03:01;5.88;;;2.10;;
17239;SDS011;9943;54.378;18.604;2022-07-06T04:05:28;2.35;;;1.70;;
17239;SDS011;9943;54.378;18.604;2022-07-06T04:07:56;2.53;;;2.03;;
17239;SDS011;9943;54.378;18.604;2022-07-06T04:10:23;4.40;;;2.22;;
17239;SDS011;9943;54.378;18.604;2022-07-06T04:12:52;4.05;;;1.85;;
17239;SDS011;9943;54.378;18.604;2022-07-06T04:15:19;2.40;;;1.92;;
17239;SDS011;9943;54.378;18.604;2022-07-06T04:17:46;3.15;;;1.80;;
17239;SDS011;9943;54.378;18.604;2022-07-06T04:20:20;4.05;;;1.73;;
17239;SDS011;9943;54.378;18.604;2022-07-06T04:22:48;2.92;;;1.80;;
17239;SDS011;9943;54.378;18.604;2022-07-06T04:25:16;5.95;;;2.15;;
17239;SDS011;9943;54.378;18.604;2022-07-06T04:27:43;4.22;;;1.65;;
17239;SDS011;9943;54.378;18.604;2022-07-06T04:30:13;2.03;;;1.75;;
17239;SDS011;9943;54.378;18.604;2022-07-06T04:32:40;3.30;;;1.88;;
17239;SDS011;9943;54.378;18.604;2022-07-06T04:35:08;2.53;;;1.77;;
17239;SDS011;9943;54.378;18.604;2022-07-06T04:37:35;4.07;;;1.77;;
17239;SDS011;9943;54.378;18.604;2022-07-06T04:40:03;3.47;;;1.70;;
17239;SDS011;9943;54.378;18.604;2022-07-06T04:42:31;4.68;;;1.42;;
17239;SDS011;9943;54.378;18.604;2022-07-06T04:44:59;5.40;;;1.30;;
17239;SDS011;9943;54.378;18.604;2022-07-06T04:47:28;5.05;;;2.00;;
17239;SDS011;9943;54.378;18.604;2022-07-06T04:49:55;2.22;;;1.50;;
17239;SDS011;9943;54.378;18.604;2022-07-06T04:52:23;2.05;;;1.70;;
17239;SDS011;9943;54.378;18.604;2022-07-06T04:54:51;5.28;;;1.63;;
17239;SDS011;9943;54.378;18.604;2022-07-06T04:57:18;4.32;;;1.80;;
17239;SDS011;9943;54.378;18.604;2022-07-06T04:59:45;2.13;;;1.63;;
17239;SDS011;9943;54.378;18.604;2022-07-06T05:02:13;2.63;;;1.70;;
17239;SDS011;9943;54.378;18.604;2022-07-06T05:04:42;2.95;;;1.70;;
17239;SDS011;9943;54.378;18.604;2022-07-06T05:07:10;2.13;;;1.50;;
17239;SDS011;9943;54.378;18.604;2022-07-06T05:09:37;3.28;;;1.60;;
17239;SDS011;9943;54.378;18.604;2022-07-06T05:12:04;2.22;;;1.42;;
17239;SDS011;9943;54.378;18.604;2022-07-06T05:14:33;2.67;;;1.50;;
17239;SDS011;9943;54.378;18.604;2022-07-06T05:17:01;2.60;;;1.45;;
17239;SDS011;9943;54.378;18.604;2022-07-06T05:19:29;3.60;;;1.48;;
17239;SDS011;9943;54.378;18.604;2022-07-06T05:21:58;3.78;;;1.70;;
17239;SDS011;9943;54.378;18.604;2022-07-06T05:24:26;6.00;;;1.80;;
17239;SDS011;9943;54.378;18.604;2022-07-06T05:26:53;3.92;;;1.55;;
17239;SDS011;9943;54.378;18.604;2022-07-06T05:29:21;3.38;;;1.65;;
17239;SDS011;9943;54.378;18.604;2022-07-06T05:31:48;5.68;;;1.85;;
17239;SDS011;9943;54.378;18.604;2022-07-06T05:34:16;4.82;;;1.98;;
17239;SDS011;9943;54.378;18.604;2022-07-06T05:36:43;4.28;;;1.60;;
17239;SDS011;9943;54.378;18.604;2022-07-06T05:39:13;4.93;;;1.80;;
17239;SDS011;9943;54.378;18.604;2022-07-06T05:41:44;5.32;;;1.50;;
17239;SDS011;9943;54.378;18.604;2022-07-06T05:44:12;3.38;;;1.35;;
17239;SDS011;9943;54.378;18.604;2022-07-06T05:46:39;2.08;;;1.33;;
17239;SDS011;9943;54.378;18.604;2022-07-06T05:49:07;2.88;;;1.45;;
17239;SDS011;9943;54.378;18.604;2022-07-06T05:51:52;2.20;;;1.33;;
17239;SDS011;9943;54.378;18.604;2022-07-06T05:54:20;2.50;;;1.40;;
17239;SDS011;9943;54.378;18.604;2022-07-06T05:56:48;2.75;;;1.40;;
17239;SDS011;9943;54.378;18.604;2022-07-06T05:59:15;3.72;;;1.73;;
17239;SDS011;9943;54.378;18.604;2022-07-06T06:01:43;2.33;;;1.40;;
17239;SDS011;9943;54.378;18.604;2022-07-06T06:04:10;3.53;;;1.60;;
17239;SDS011;9943;54.378;18.604;2022-07-06T06:06:38;6.18;;;1.20;;
17239;SDS011;9943;54.378;18.604;2022-07-06T06:09:05;4.25;;;1.40;;
17239;SDS011;9943;54.378;18.604;2022-07-06T06:11:34;7.15;;;1.50;;
17239;SDS011;9943;54.378;18.604;2022-07-06T06:14:01;5.50;;;1.35;;
17239;SDS011;9943;54.378;18.604;2022-07-06T06:16:30;3.60;;;1.10;;
17239;SDS011;9943;54.378;18.604;2022-07-06T06:18:57;2.03;;;1.08;;
17239;SDS011;9943;54.378;18.604;2022-07-06T06:21:24;2.50;;;1.27;;
17239;SDS011;9943;54.378;18.604;2022-07-06T06:23:52;4.60;;;1.35;;
17239;SDS011;9943;54.378;18.604;2022-07-06T06:26:19;3.30;;;1.30;;
17239;SDS011;9943;54.378;18.604;2022-07-06T06:28:48;4.47;;;1.52;;
17239;SDS011;9943;54.378;18.604;2022-07-06T06:31:15;4.22;;;1.67;;
17239;SDS011;9943;54.378;18.604;2022-07-06T06:33:43;1.92;;;1.13;;
17239;SDS011;9943;54.378;18.604;2022-07-06T06:36:10;2.92;;;1.00;;
17239;SDS011;9943;54.378;18.604;2022-07-06T06:38:38;2.88;;;0.95;;
17239;SDS011;9943;54.378;18.604;2022-07-06T06:41:05;3.78;;;1.30;;
17239;SDS011;9943;54.378;18.604;2022-07-06T06:43:33;3.90;;;1.77;;
17239;SDS011;9943;54.378;18.604;2022-07-06T06:46:02;2.33;;;0.82;;
17239;SDS011;9943;54.378;18.604;2022-07-06T06:48:30;5.18;;;1.10;;
17239;SDS011;9943;54.378;18.604;2022-07-06T06:50:58;3.05;;;1.10;;
17239;SDS011;9943;54.378;18.604;2022-07-06T06:53:26;1.70;;;0.90;;
17239;SDS011;9943;54.378;18.604;2022-07-06T06:55:53;2.90;;;0.90;;
17239;SDS011;9943;54.378;18.604;2022-07-06T06:58:20;2.28;;;0.95;;
17239;SDS011;9943;54.378;18.604;2022-07-06T07:00:48;2.08;;;0.90;;
17239;SDS011;9943;54.378;18.604;2022-07-06T07:03:16;1.60;;;0.90;;
17239;SDS011;9943;54.378;18.604;2022-07-06T07:05:44;2.50;;;1.25;;
17239;SDS011;9943;54.378;18.604;2022-07-06T07:08:12;1.33;;;0.88;;
17239;SDS011;9943;54.378;18.604;2022-07-06T07:10:39;4.70;;;1.38;;
17239;SDS011;9943;54.378;18.604;2022-07-06T07:13:07;3.47;;;0.95;;
17239;SDS011;9943;54.378;18.604;2022-07-06T07:15:34;2.25;;;0.75;;
17239;SDS011;9943;54.378;18.604;2022-07-06T07:18:01;1.80;;;0.90;;
17239;SDS011;9943;54.378;18.604;2022-07-06T07:20:30;2.75;;;1.00;;
17239;SDS011;9943;54.378;18.604;2022-07-06T07:22:59;2.35;;;0.80;;
17239;SDS011;9943;54.378;18.604;2022-07-06T07:25:27;4.85;;;1.10;;
17239;SDS011;9943;54.378;18.604;2022-07-06T07:27:55;3.22;;;1.63;;
17239;SDS011;9943;54.378;18.604;2022-07-06T07:30:22;2.95;;;1.10;;
17239;SDS011;9943;54.378;18.604;2022-07-06T07:32:49;1.73;;;0.80;;
17239;SDS011;9943;54.378;18.604;2022-07-06T07:35:17;2.40;;;1.02;;
17239;SDS011;9943;54.378;18.604;2022-07-06T07:37:46;1.55;;;1.13;;
17239;SDS011;9943;54.378;18.604;2022-07-06T07:40:13;2.70;;;0.95;;
17239;SDS011;9943;54.378;18.604;2022-07-06T07:42:40;2.92;;;0.95;;
17239;SDS011;9943;54.378;18.604;2022-07-06T07:45:09;2.70;;;0.98;;
17239;SDS011;9943;54.378;18.604;2022-07-06T07:47:36;2.25;;;1.17;;
17239;SDS011;9943;54.378;18.604;2022-07-06T07:50:04;3.20;;;0.90;;
17239;SDS011;9943;54.378;18.604;2022-07-06T07:52:33;2.50;;;1.00;;
17239;SDS011;9943;54.378;18.604;2022-07-06T07:55:03;4.35;;;1.10;;
17239;SDS011;9943;54.378;18.604;2022-07-06T07:57:32;1.52;;;1.00;;
17239;SDS011;9943;54.378;18.604;2022-07-06T08:00:00;1.75;;;0.82;;
17239;SDS011;9943;54.378;18.604;2022-07-06T08:02:28;2.05;;;1.00;;
17239;SDS011;9943;54.378;18.604;2022-07-06T08:04:55;1.52;;;1.05;;
17239;SDS011;9943;54.378;18.604;2022-07-06T08:07:23;3.50;;;0.93;;
17239;SDS011;9943;54.378;18.604;2022-07-06T08:09:50;3.67;;;0.88;;
17239;SDS011;9943;54.378;18.604;2022-07-06T08:12:19;1.90;;;0.80;;
17239;SDS011;9943;54.378;18.604;2022-07-06T08:14:46;1.77;;;0.90;;
17239;SDS011;9943;54.378;18.604;2022-07-06T08:17:14;3.63;;;0.80;;
17239;SDS011;9943;54.378;18.604;2022-07-06T08:19:41;5.57;;;1.20;;
17239;SDS011;9943;54.378;18.604;2022-07-06T08:22:09;1.80;;;1.10;;
17239;SDS011;9943;54.378;18.604;2022-07-06T08:24:36;2.92;;;1.23;;
17239;SDS011;9943;54.378;18.604;2022-07-06T08:27:04;1.45;;;0.80;;
17239;SDS011;9943;54.378;18.604;2022-07-06T08:29:33;2.47;;;1.00;;
17239;SDS011;9943;54.378;18.604;2022-07-06T08:32:01;1.25;;;0.85;;
17239;SDS011;9943;54.378;18.604;2022-07-06T08:34:29;3.83;;;1.10;;
17239;SDS011;9943;54.378;18.604;2022-07-06T08:36:56;2.75;;;0.93;;
17239;SDS011;9943;54.378;18.604;2022-07-06T08:39:23;3.17;;;1.13;;
17239;SDS011;9943;54.378;18.604;2022-07-06T08:41:51;1.00;;;0.90;;
17239;SDS011;9943;54.378;18.604;2022-07-06T08:44:18;0.95;;;0.82;;
17239;SDS011;9943;54.378;18.604;2022-07-06T08:46:47;2.55;;;0.80;;
17239;SDS011;9943;54.378;18.604;2022-07-06T08:49:18;1.40;;;0.82;;
17239;SDS011;9943;54.378;18.604;2022-07-06T08:51:47;4.85;;;1.27;;
17239;SDS011;9943;54.378;18.604;2022-07-06T08:54:15;2.70;;;0.77;;
17239;SDS011;9943;54.378;18.604;2022-07-06T08:56:43;2.80;;;0.88;;
17239;SDS011;9943;54.378;18.604;2022-07-06T08:59:12;1.20;;;0.88;;
17239;SDS011;9943;54.378;18.604;2022-07-06T09:01:39;1.90;;;0.90;;
17239;SDS011;9943;54.378;18.604;2022-07-06T09:04:08;4.20;;;1.08;;
17239;SDS011;9943;54.378;18.604;2022-07-06T09:06:38;2.60;;;0.85;;
17239;SDS011;9943;54.378;18.604;2022-07-06T09:09:08;2.92;;;0.60;;
17239;SDS011;9943;54.378;18.604;2022-07-06T09:11:37;1.20;;;0.77;;
17239;SDS011;9943;54.378;18.604;2022-07-06T09:14:05;3.22;;;0.60;;
17239;SDS011;9943;54.378;18.604;2022-07-06T09:16:32;2.85;;;0.77;;
17239;SDS011;9943;54.378;18.604;2022-07-06T09:18:59;0.63;;;0.60;;
17239;SDS011;9943;54.378;18.604;2022-07-06T09:21:29;1.52;;;0.80;;
17239;SDS011;9943;54.378;18.604;2022-07-06T09:23:58;2.08;;;0.60;;
17239;SDS011;9943;54.378;18.604;2022-07-06T09:26:28;1.67;;;0.82;;
17239;SDS011;9943;54.378;18.604;2022-07-06T09:28:56;1.35;;;0.85;;
17239;SDS011;9943;54.378;18.604;2022-07-06T09:31:24;1.55;;;0.60;;
17239;SDS011;9943;54.378;18.604;2022-07-06T09:33:53;2.72;;;0.80;;
17239;SDS011;9943;54.378;18.604;2022-07-06T09:41:51;1.02;;;0.82;;
17239;SDS011;9943;54.378;18.604;2022-07-06T09:44:21;1.10;;;0.70;;
17239;SDS011;9943;54.378;18.604;2022-07-06T09:46:50;2.05;;;0.85;;
17239;SDS011;9943;54.378;18.604;2022-07-06T09:49:18;2.95;;;0.93;;
17239;SDS011;9943;54.378;18.604;2022-07-06T09:51:48;0.95;;;0.70;;
17239;SDS011;9943;54.378;18.604;2022-07-06T09:54:17;1.13;;;0.80;;
17239;SDS011;9943;54.378;18.604;2022-07-06T09:56:45;2.13;;;1.00;;
17239;SDS011;9943;54.378;18.604;2022-07-06T09:59:17;1.70;;;0.80;;
17239;SDS011;9943;54.378;18.604;2022-07-06T10:01:47;2.20;;;0.82;;
17239;SDS011;9943;54.378;18.604;2022-07-06T10:04:17;2.85;;;0.80;;
17239;SDS011;9943;54.378;18.604;2022-07-06T10:06:46;2.25;;;0.80;;
17239;SDS011;9943;54.378;18.604;2022-07-06T10:09:16;6.82;;;0.90;;
17239;SDS011;9943;54.378;18.604;2022-07-06T10:11:47;1.45;;;0.88;;
17239;SDS011;9943;54.378;18.604;2022-07-06T10:14:17;2.65;;;0.95;;
17239;SDS011;9943;54.378;18.604;2022-07-06T10:16:47;2.97;;;1.08;;
17239;SDS011;9943;54.378;18.604;2022-07-06T10:19:15;2.25;;;0.70;;
17239;SDS011;9943;54.378;18.604;2022-07-06T10:21:44;4.90;;;0.70;;
17239;SDS011;9943;54.378;18.604;2022-07-06T10:24:13;1.92;;;0.82;;
17239;SDS011;9943;54.378;18.604;2022-07-06T10:26:41;1.77;;;0.90;;
17239;SDS011;9943;54.378;18.604;2022-07-06T10:29:09;2.70;;;1.13;;
17239;SDS011;9943;54.378;18.604;2022-07-06T10:31:37;3.40;;;1.40;;
17239;SDS011;9943;54.378;18.604;2022-07-06T10:34:07;1.58;;;0.77;;
17239;SDS011;9943;54.378;18.604;2022-07-06T10:36:37;2.55;;;1.00;;
17239;SDS011;9943;54.378;18.604;2022-07-06T10:39:06;3.20;;;0.80;;
17239;SDS011;9943;54.378;18.604;2022-07-06T10:41:49;1.73;;;0.80;;
17239;SDS011;9943;54.378;18.604;2022-07-06T10:44:17;6.35;;;0.77;;
17239;SDS011;9943;54.378;18.604;2022-07-06T10:46:51;4.95;;;0.75;;
17239;SDS011;9943;54.378;18.604;2022-07-06T10:49:21;2.03;;;1.50;;
17239;SDS011;9943;54.378;18.604;2022-07-06T10:51:49;1.52;;;0.80;;
17239;SDS011;9943;54.378;18.604;2022-07-06T10:54:18;2.40;;;0.95;;
17239;SDS011;9943;54.378;18.604;2022-07-06T10:56:47;1.48;;;0.60;;
17239;SDS011;9943;54.378;18.604;2022-07-06T10:59:17;2.67;;;0.80;;
17239;SDS011;9943;54.378;18.604;2022-07-06T11:04:39;2.55;;;0.70;;
17239;SDS011;9943;54.378;18.604;2022-07-06T11:07:09;1.75;;;0.73;;
17239;SDS011;9943;54.378;18.604;2022-07-06T11:09:37;1.85;;;0.80;;
17239;SDS011;9943;54.378;18.604;2022-07-06T11:12:18;1.73;;;1.20;;
17239;SDS011;9943;54.378;18.604;2022-07-06T11:14:46;2.15;;;0.88;;
17239;SDS011;9943;54.378;18.604;2022-07-06T11:17:15;2.88;;;1.05;;
17239;SDS011;9943;54.378;18.604;2022-07-06T11:19:48;1.10;;;0.80;;
17239;SDS011;9943;54.378;18.604;2022-07-06T11:22:17;2.15;;;0.90;;
17239;SDS011;9943;54.378;18.604;2022-07-06T11:24:45;1.42;;;1.00;;
17239;SDS011;9943;54.378;18.604;2022-07-06T11:27:14;2.65;;;0.95;;
17239;SDS011;9943;54.378;18.604;2022-07-06T11:29:43;2.90;;;0.85;;
17239;SDS011;9943;54.378;18.604;2022-07-06T11:32:13;6.05;;;1.27;;
17239;SDS011;9943;54.378;18.604;2022-07-06T11:34:41;1.33;;;1.02;;
17239;SDS011;9943;54.378;18.604;2022-07-06T11:37:10;1.58;;;1.08;;
17239;SDS011;9943;54.378;18.604;2022-07-06T11:39:39;2.85;;;1.10;;
17239;SDS011;9943;54.378;18.604;2022-07-06T11:42:08;3.00;;;1.30;;
17239;SDS011;9943;54.378;18.604;2022-07-06T11:44:37;2.67;;;1.23;;
17239;SDS011;9943;54.378;18.604;2022-07-06T11:47:07;1.38;;;1.00;;
17239;SDS011;9943;54.378;18.604;2022-07-06T11:49:36;3.53;;;1.10;;
17239;SDS011;9943;54.378;18.604;2022-07-06T11:52:07;2.08;;;1.05;;
17239;SDS011;9943;54.378;18.604;2022-07-06T11:54:37;2.15;;;1.20;;
17239;SDS011;9943;54.378;18.604;2022-07-06T11:57:07;1.80;;;0.90;;
17239;SDS011;9943;54.378;18.604;2022-07-06T11:59:37;3.42;;;1.15;;
17239;SDS011;9943;54.378;18.604;2022-07-06T12:02:08;2.75;;;0.75;;
17239;SDS011;9943;54.378;18.604;2022-07-06T12:04:37;2.55;;;1.23;;
17239;SDS011;9943;54.378;18.604;2022-07-06T12:07:07;1.42;;;1.10;;
17239;SDS011;9943;54.378;18.604;2022-07-06T12:09:38;1.42;;;0.82;;
17239;SDS011;9943;54.378;18.604;2022-07-06T12:12:07;4.53;;;0.80;;
17239;SDS011;9943;54.378;18.604;2022-07-06T12:14:36;1.15;;;0.70;;
17239;SDS011;9943;54.378;18.604;2022-07-06T12:17:05;1.30;;;1.05;;
17239;SDS011;9943;54.378;18.604;2022-07-06T12:19:35;0.68;;;0.60;;
17239;SDS011;9943;54.378;18.604;2022-07-06T12:22:04;1.50;;;0.90;;
17239;SDS011;9943;54.378;18.604;2022-07-06T12:24:32;0.98;;;0.73;;
17239;SDS011;9943;54.378;18.604;2022-07-06T12:27:09;8.30;;;0.70;;
17239;SDS011;9943;54.378;18.604;2022-07-06T12:29:38;1.67;;;1.00;;
17239;SDS011;9943;54.378;18.604;2022-07-06T12:32:06;2.10;;;0.70;;
17239;SDS011;9943;54.378;18.604;2022-07-06T12:34:40;1.90;;;1.00;;
17239;SDS011;9943;54.378;18.604;2022-07-06T12:37:08;1.75;;;0.93;;
17239;SDS011;9943;54.378;18.604;2022-07-06T12:39:40;1.10;;;1.00;;
17239;SDS011;9943;54.378;18.604;2022-07-06T12:42:08;3.67;;;1.10;;
17239;SDS011;9943;54.378;18.604;2022-07-06T12:44:41;1.90;;;0.90;;
17239;SDS011;9943;54.378;18.604;2022-07-06T12:47:11;2.95;;;1.50;;
17239;SDS011;9943;54.378;18.604;2022-07-06T12:49:43;1.35;;;1.10;;
17239;SDS011;9943;54.378;18.604;2022-07-06T12:52:12;2.83;;;1.02;;
17239;SDS011;9943;54.378;18.604;2022-07-06T12:54:41;3.15;;;1.63;;
17239;SDS011;9943;54.378;18.604;2022-07-06T12:57:11;2.72;;;1.55;;
17239;SDS011;9943;54.378;18.604;2022-07-06T12:59:43;2.80;;;2.05;;
17239;SDS011;9943;54.378;18.604;2022-07-06T13:02:22;2.75;;;1.00;;
17239;SDS011;9943;54.378;18.604;2022-07-06T13:04:54;5.32;;;2.42;;
17239;SDS011;9943;54.378;18.604;2022-07-06T13:07:22;2.83;;;1.58;;
17239;SDS011;9943;54.378;18.604;2022-07-06T13:09:50;3.10;;;1.85;;
17239;SDS011;9943;54.378;18.604;2022-07-06T13:12:17;1.45;;;1.35;;
17239;SDS011;9943;54.378;18.604;2022-07-06T13:14:45;2.42;;;1.40;;
17239;SDS011;9943;54.378;18.604;2022-07-06T13:17:12;2.92;;;1.20;;
17239;SDS011;9943;54.378;18.604;2022-07-06T13:19:41;2.45;;;1.10;;
17239;SDS011;9943;54.378;18.604;2022-07-06T13:22:09;3.17;;;2.05;;
17239;SDS011;9943;54.378;18.604;2022-07-06T13:24:37;2.00;;;1.90;;
17239;SDS011;9943;54.378;18.604;2022-07-06T13:27:05;2.35;;;1.10;;
17239;SDS011;9943;54.378;18.604;2022-07-06T13:29:33;2.15;;;1.15;;
17239;SDS011;9943;54.378;18.604;2022-07-06T13:32:00;2.28;;;1.23;;
17239;SDS011;9943;54.378;18.604;2022-07-06T13:34:28;3.38;;;1.58;;
17239;SDS011;9943;54.378;18.604;2022-07-06T13:36:56;2.97;;;1.17;;
17239;SDS011;9943;54.378;18.604;2022-07-06T13:39:24;2.30;;;1.15;;
17239;SDS011;9943;54.378;18.604;2022-07-06T13:41:53;1.98;;;1.30;;
17239;SDS011;9943;54.378;18.604;2022-07-06T13:44:20;2.03;;;0.75;;
17239;SDS011;9943;54.378;18.604;2022-07-06T13:46:49;1.58;;;0.90;;
17239;SDS011;9943;54.378;18.604;2022-07-06T13:49:17;3.70;;;1.98;;
17239;SDS011;9943;54.378;18.604;2022-07-06T13:51:45;4.25;;;3.42;;
17239;SDS011;9943;54.378;18.604;2022-07-06T13:54:14;2.38;;;1.00;;
17239;SDS011;9943;54.378;18.604;2022-07-06T13:56:41;3.97;;;1.17;;
17239;SDS011;9943;54.378;18.604;2022-07-06T13:59:09;4.22;;;1.73;;
17239;SDS011;9943;54.378;18.604;2022-07-06T14:01:36;3.08;;;1.42;;
17239;SDS011;9943;54.378;18.604;2022-07-06T14:04:04;1.10;;;1.00;;
17239;SDS011;9943;54.378;18.604;2022-07-06T14:06:32;2.25;;;1.38;;
17239;SDS011;9943;54.378;18.604;2022-07-06T14:09:00;2.53;;;1.50;;
17239;SDS011;9943;54.378;18.604;2022-07-06T14:11:29;2.53;;;1.42;;
17239;SDS011;9943;54.378;18.604;2022-07-06T14:13:57;6.22;;;1.23;;
17239;SDS011;9943;54.378;18.604;2022-07-06T14:16:24;1.30;;;1.20;;
17239;SDS011;9943;54.378;18.604;2022-07-06T14:18:51;2.45;;;1.58;;
17239;SDS011;9943;54.378;18.604;2022-07-06T14:21:19;2.58;;;1.42;;
17239;SDS011;9943;54.378;18.604;2022-07-06T14:23:46;3.63;;;1.98;;
17239;SDS011;9943;54.378;18.604;2022-07-06T14:26:15;2.28;;;1.02;;
17239;SDS011;9943;54.378;18.604;2022-07-06T14:28:44;4.25;;;1.90;;
17239;SDS011;9943;54.378;18.604;2022-07-06T14:31:12;2.45;;;1.42;;
17239;SDS011;9943;54.378;18.604;2022-07-06T14:33:39;2.13;;;1.13;;
17239;SDS011;9943;54.378;18.604;2022-07-06T14:36:07;1.45;;;1.35;;
17239;SDS011;9943;54.378;18.604;2022-07-06T14:38:34;2.30;;;1.20;;
17239;SDS011;9943;54.378;18.604;2022-07-06T14:41:02;6.35;;;3.67;;
17239;SDS011;9943;54.378;18.604;2022-07-06T14:43:29;1.90;;;1.00;;
17239;SDS011;9943;54.378;18.604;2022-07-06T14:45:58;5.88;;;2.47;;
17239;SDS011;9943;54.378;18.604;2022-07-06T14:48:26;2.70;;;0.98;;
17239;SDS011;9943;54.378;18.604;2022-07-06T14:50:54;1.42;;;1.00;;
17239;SDS011;9943;54.378;18.604;2022-07-06T14:53:23;3.15;;;1.35;;
17239;SDS011;9943;54.378;18.604;2022-07-06T14:55:50;2.03;;;1.10;;
17239;SDS011;9943;54.378;18.604;2022-07-06T14:58:18;1.35;;;0.90;;
17239;SDS011;9943;54.378;18.604;2022-07-06T15:00:48;1.52;;;1.10;;
17239;SDS011;9943;54.378;18.604;2022-07-06T15:03:17;2.47;;;1.10;;